Time;durP1;ratioP1;P1;durP2;ratioP2;P2;SDS_P1;SDS_P2;PMS_P1;PMS_P2;Temp;Humidity;BMP_temperature;BMP_pressure;BME280_temperature;BME280_humidity;BME280_pressure;Samples;Min_cycle;Max_cycle;Signal;HPM_P1;HPM_P2
2023/06/29 00:01:13;;;;;;;20.87;16.33;;;;;;;19.73;95.98;101475.91;5325373;28;20027;-66
2023/06/29 00:03:44;;;;;;;17.63;15.73;;;;;;;19.78;97.23;101460.72;5325604;28;20027;-66
2023/06/29 00:06:17;;;;;;;19.60;16.10;;;;;;;19.77;96.94;101466.09;5324121;28;20043;-67
2023/06/29 00:08:49;;;;;;;21.88;16.83;;;;;;;19.75;95.43;101467.91;5325354;28;20540;-67
2023/06/29 00:11:22;;;;;;;23.40;15.85;;;;;;;19.77;95.22;101461.69;5325002;28;20040;-67
2023/06/29 00:13:53;;;;;;;18.27;15.90;;;;;;;19.73;95.38;101459.19;5324158;28;20053;-66
2023/06/29 00:16:25;;;;;;;20.40;15.73;;;;;;;19.71;95.98;101448.66;5325190;28;20036;-68
2023/06/29 00:18:56;;;;;;;21.90;15.80;;;;;;;19.70;95.48;101448.72;5324157;28;20444;-67
2023/06/29 00:21:31;;;;;;;21.33;15.43;;;;;;;19.61;94.88;101437.59;5324965;28;20356;-66
2023/06/29 00:24:03;;;;;;;18.65;15.13;;;;;;;19.59;96.88;101443.84;5325393;28;20079;-66
2023/06/29 00:26:34;;;;;;;22.67;16.57;;;;;;;19.51;97.04;101444.16;5324850;28;20043;-67
2023/06/29 00:29:06;;;;;;;17.43;15.40;;;;;;;19.52;97.79;101443.25;5325288;28;20505;-67
2023/06/29 00:31:37;;;;;;;20.50;15.33;;;;;;;19.56;98.47;101444.88;5325009;28;20447;-67
2023/06/29 00:34:08;;;;;;;25.60;17.30;;;;;;;19.55;97.67;101443.13;5323840;28;20357;-67
2023/06/29 00:36:40;;;;;;;32.80;16.50;;;;;;;19.47;96.57;101439.94;5325043;28;20089;-67
2023/06/29 00:39:12;;;;;;;25.50;17.23;;;;;;;19.54;97.00;101438.75;5327211;28;20445;-67
2023/06/29 00:41:43;;;;;;;22.87;17.00;;;;;;;19.48;97.13;101431.06;5327928;28;20038;-67
2023/06/29 00:44:14;;;;;;;17.47;15.50;;;;;;;19.53;97.92;101444.09;5329246;28;20024;-67
2023/06/29 00:46:47;;;;;;;19.00;16.03;;;;;;;19.58;96.90;101436.88;5329154;28;20035;-67
2023/06/29 00:49:19;;;;;;;21.42;17.05;;;;;;;19.54;96.62;101432.63;5329052;28;20435;-67
2023/06/29 00:51:52;;;;;;;27.25;17.77;;;;;;;19.52;96.83;101434.47;5328739;28;20032;-67
2023/06/29 00:54:25;;;;;;;21.50;16.42;;;;;;;19.59;97.80;101431.50;5328984;28;20023;-66
2023/06/29 00:56:58;;;;;;;21.15;17.92;;;;;;;19.56;97.57;101436.94;5328921;28;20043;-67
2023/06/29 00:59:30;;;;;;;21.67;16.40;;;;;;;19.61;97.57;101423.50;5328737;28;20114;-67
2023/06/29 01:02:01;;;;;;;26.20;17.70;;;;;;;19.59;97.36;101420.06;5329217;28;20122;-68
2023/06/29 01:04:37;;;;;;;22.13;17.30;;;;;;;19.57;98.59;101419.25;5328942;28;20435;-67
2023/06/29 01:07:17;;;;;;;23.83;18.50;;;;;;;19.54;98.46;101425.53;5328722;28;20360;-67
2023/06/29 01:09:52;;;;;;;24.55;17.45;;;;;;;19.57;98.13;101417.47;5328469;28;20028;-67
2023/06/29 01:12:24;;;;;;;22.02;17.42;;;;;;;19.58;97.18;101419.22;5328749;28;20051;-67
2023/06/29 01:14:56;;;;;;;;;;;;;;;19.65;96.09;101415.38;5329057;28;20032;-67
2023/06/29 01:17:30;;;;;;;20.40;17.23;;;;;;;19.56;97.09;101418.41;5328608;28;19969;-67
2023/06/29 01:20:02;;;;;;;22.17;17.52;;;;;;;19.52;96.53;101419.44;5328396;28;20041;-67
2023/06/29 01:22:55;;;;;;;23.00;17.10;;;;;;;19.54;97.79;101419.38;5328195;28;20031;-67
2023/06/29 01:25:27;;;;;;;22.25;17.80;;;;;;;19.53;96.69;101415.91;5328708;28;20330;-67
2023/06/29 01:27:58;;;;;;;19.70;16.98;;;;;;;19.53;97.16;101407.97;5328297;27;20051;-66
2023/06/29 01:30:31;;;;;;;24.83;17.67;;;;;;;19.53;97.39;101407.06;5328358;28;20088;-67
2023/06/29 01:33:02;;;;;;;;;;;;;;;19.64;96.01;101408.38;5327119;28;20027;-66
2023/06/29 01:35:34;;;;;;;19.47;17.17;;;;;;;19.55;95.79;101411.41;5328176;28;19918;-67
2023/06/29 01:38:13;;;;;;;25.00;17.77;;;;;;;19.56;95.09;101401.66;5326847;28;20028;-67
2023/06/29 01:40:48;;;;;;;24.13;18.10;;;;;;;19.50;96.57;101400.16;5327990;28;20341;-66
2023/06/29 01:43:21;;;;;;;20.52;17.92;;;;;;;19.44;95.74;101400.38;5327883;28;20122;-66
2023/06/29 01:45:52;;;;;;;20.58;18.13;;;;;;;19.51;95.58;101399.22;5326725;28;20500;-67
2023/06/29 01:48:25;;;;;;;21.20;16.50;;;;;;;19.44;95.33;101400.38;5328057;28;20056;-66
2023/06/29 01:50:57;;;;;;;20.85;18.65;;;;;;;19.44;95.24;101392.47;5327664;28;20032;-67
2023/06/29 01:53:28;;;;;;;23.17;17.70;;;;;;;19.45;95.17;101394.19;5327179;28;20032;-67
2023/06/29 01:56:00;;;;;;;19.77;17.73;;;;;;;19.49;95.40;101385.19;5328050;28;20028;-67
2023/06/29 01:58:31;;;;;;;20.53;18.10;;;;;;;19.41;95.33;101392.56;5327844;28;20205;-67
2023/06/29 02:01:02;;;;;;;23.87;18.70;;;;;;;19.43;96.72;101391.59;5328065;28;20046;-67
2023/06/29 02:03:34;;;;;;;23.40;18.67;;;;;;;19.46;95.43;101395.91;5327688;27;20100;-67
2023/06/29 02:06:06;;;;;;;23.20;18.90;;;;;;;19.46;95.62;101383.56;5327575;28;20111;-67
2023/06/29 02:08:38;;;;;;;23.52;18.63;;;;;;;19.44;95.74;101388.03;5327882;28;20555;-66
2023/06/29 02:11:10;;;;;;;21.52;19.23;;;;;;;19.40;95.33;101383.78;5327520;28;20113;-67
2023/06/29 02:13:41;;;;;;;22.10;19.80;;;;;;;19.38;94.83;101380.34;5327579;28;20032;-67
2023/06/29 02:16:13;;;;;;;23.17;20.77;;;;;;;19.37;93.94;101375.09;5327400;28;20084;-67
2023/06/29 02:18:44;;;;;;;22.30;19.88;;;;;;;19.37;95.00;101375.09;5327280;27;20036;-67
2023/06/29 02:21:16;;;;;;;22.43;20.03;;;;;;;19.38;95.40;101369.75;5325970;28;20032;-67
2023/06/29 02:23:47;;;;;;;21.83;19.40;;;;;;;19.37;94.49;101380.38;5326766;28;20523;-67
2023/06/29 02:26:19;;;;;;;21.97;19.67;;;;;;;19.31;93.98;101390.28;5327216;28;20042;-67
2023/06/29 02:28:51;;;;;;;23.13;19.97;;;;;;;19.34;94.88;101375.25;5325888;28;20265;-68
2023/06/29 02:31:22;;;;;;;20.95;18.75;;;;;;;19.36;95.69;101376.91;5327216;28;20100;-67
2023/06/29 02:33:55;;;;;;;23.67;19.77;;;;;;;19.35;95.19;101369.03;5327063;28;20032;-69
2023/06/29 02:36:26;;;;;;;22.67;19.95;;;;;;;19.32;94.54;101370.03;5327167;28;20036;-67
2023/06/29 02:38:58;;;;;;;24.53;20.00;;;;;;;19.35;94.84;101363.75;5326898;28;20031;-67
2023/06/29 02:41:29;;;;;;;24.17;19.77;;;;;;;19.34;94.38;101362.03;5326746;28;20070;-66
2023/06/29 02:44:01;;;;;;;21.77;19.40;;;;;;;19.34;94.43;101359.41;5326863;28;20034;-67
2023/06/29 02:46:32;;;;;;;23.97;20.13;;;;;;;19.35;93.85;101356.66;5326740;28;20027;-67
2023/06/29 02:49:04;;;;;;;20.77;18.57;;;;;;;19.31;95.16;101361.22;5325490;28;20561;-67
2023/06/29 02:51:35;;;;;;;23.80;20.77;;;;;;;19.32;94.15;101359.47;5326597;28;20112;-67
2023/06/29 02:54:06;;;;;;;24.40;19.87;;;;;;;19.30;94.36;101351.59;5325966;28;20414;-67
2023/06/29 02:56:38;;;;;;;21.17;18.97;;;;;;;19.26;94.04;101352.63;5325540;28;20028;-66
2023/06/29 02:59:09;;;;;;;22.57;19.87;;;;;;;19.25;94.77;101342.97;5326600;28;20153;-67
2023/06/29 03:01:40;;;;;;;23.50;19.80;;;;;;;19.24;94.58;101350.94;5326156;28;20035;-66
2023/06/29 03:04:12;;;;;;;22.00;18.40;;;;;;;19.30;95.23;101346.31;5326451;28;20394;-66
2023/06/29 03:06:43;;;;;;;25.43;21.63;;;;;;;19.24;94.60;101353.59;5326255;28;20133;-66
2023/06/29 03:09:15;;;;;;;22.60;19.80;;;;;;;19.24;95.04;101343.03;5326401;28;20034;-67
2023/06/29 03:11:46;;;;;;;23.00;20.50;;;;;;;19.28;95.59;101350.75;5326154;28;20072;-67
2023/06/29 03:14:17;;;;;;;26.03;21.47;;;;;;;19.23;95.13;101344.81;5326259;28;20108;-67
2023/06/29 03:16:49;;;;;;;22.90;19.47;;;;;;;19.27;95.50;101346.41;5326197;28;20034;-68
2023/06/29 03:19:21;;;;;;;23.80;21.38;;;;;;;19.21;95.40;101354.59;5325966;28;20471;-67
2023/06/29 03:21:53;;;;;;;25.57;22.70;;;;;;;19.21;95.61;101349.31;5325793;28;20499;-67
2023/06/29 03:24:24;;;;;;;27.02;23.33;;;;;;;19.20;95.43;101347.56;5325778;28;20039;-67
2023/06/29 03:26:55;;;;;;;26.20;22.63;;;;;;;19.21;96.15;101341.38;5325775;28;20089;-68
2023/06/29 03:29:27;;;;;;;25.00;22.23;;;;;;;19.19;96.54;101339.72;5325727;28;20108;-67
2023/06/29 03:31:59;;;;;;;30.67;23.17;;;;;;;19.21;96.27;101337.88;5325840;28;20038;-67
2023/06/29 03:34:31;;;;;;;;;;;;;;;19.27;94.83;101340.25;5325018;28;20130;-67
2023/06/29 03:37:02;;;;;;;27.97;23.77;;;;;;;19.19;97.50;101332.66;5325878;28;20025;-67
2023/06/29 03:39:34;;;;;;;28.13;23.75;;;;;;;19.17;96.13;101326.56;5326010;28;20055;-67
2023/06/29 03:42:06;;;;;;;27.33;22.90;;;;;;;19.17;96.24;101329.19;5325554;28;20038;-67
2023/06/29 03:44:39;;;;;;;29.85;23.60;;;;;;;19.21;97.41;101332.59;5325854;28;20039;-67
2023/06/29 03:47:10;;;;;;;25.05;22.40;;;;;;;19.16;96.83;101340.72;5325690;28;20123;-68
2023/06/29 03:49:42;;;;;;;27.70;22.13;;;;;;;19.21;96.44;101343.16;5325739;28;20027;-67
2023/06/29 03:52:13;;;;;;;24.17;21.67;;;;;;;19.25;96.49;101339.47;5325032;28;20036;-67
2023/06/29 03:54:45;;;;;;;25.17;22.57;;;;;;;19.23;97.09;101336.88;5325518;28;20125;-67
2023/06/29 03:57:16;;;;;;;28.17;22.33;;;;;;;19.25;96.99;101342.09;5325439;28;20609;-67
2023/06/29 03:59:48;;;;;;;25.77;22.27;;;;;;;19.24;97.32;101335.97;5325339;28;20024;-67
2023/06/29 04:02:19;;;;;;;26.27;22.33;;;;;;;19.26;96.92;101326.19;5324123;28;20044;-67
2023/06/29 04:04:50;;;;;;;26.93;22.87;;;;;;;19.26;97.18;101320.06;5325380;28;20023;-67
2023/06/29 04:07:22;;;;;;;28.20;21.80;;;;;;;19.26;97.47;101320.91;5325660;28;20031;-67
2023/06/29 04:09:53;;;;;;;25.07;22.30;;;;;;;19.25;97.41;101319.16;5325366;28;20028;-67
2023/06/29 04:12:24;;;;;;;26.10;22.80;;;;;;;19.27;97.26;101321.75;5325157;28;20038;-67
2023/06/29 04:14:56;;;;;;;25.93;23.13;;;;;;;19.25;97.14;101313.88;5329027;28;20379;-68
2023/06/29 04:17:27;;;;;;;27.53;22.27;;;;;;;19.25;97.20;101315.69;5329766;28;20068;-68
2023/06/29 04:19:59;;;;;;;25.30;22.63;;;;;;;19.26;97.09;101301.56;5330081;28;20107;-68
2023/06/29 04:22:30;;;;;;;25.47;22.23;;;;;;;19.28;97.08;101308.47;5329495;28;20027;-68
2023/06/29 04:25:02;;;;;;;24.63;20.90;;;;;;;19.29;96.97;101309.34;5329326;28;20177;-67
2023/06/29 04:27:34;;;;;;;25.20;22.43;;;;;;;19.27;97.12;101314.72;5329449;28;20031;-67
2023/06/29 04:30:06;;;;;;;25.55;22.33;;;;;;;19.30;97.45;101308.41;5329392;28;20050;-67
2023/06/29 04:32:38;;;;;;;25.85;21.98;;;;;;;19.26;98.01;101312.13;5329693;28;20085;-67
2023/06/29 04:35:10;;;;;;;25.83;21.25;;;;;;;19.33;97.64;101313.56;5329481;28;20028;-67
2023/06/29 04:37:41;;;;;;;27.03;22.37;;;;;;;19.28;98.16;101308.47;5329566;28;20032;-67
2023/06/29 04:40:14;;;;;;;26.03;22.67;;;;;;;19.36;97.74;101317.88;5329470;28;20506;-67
2023/06/29 04:42:46;;;;;;;26.83;22.63;;;;;;;19.36;97.47;101317.88;5329103;28;20119;-68
2023/06/29 04:45:19;;;;;;;24.85;22.20;;;;;;;19.36;97.16;101317.88;5329155;28;20118;-67
2023/06/29 04:47:50;;;;;;;27.77;23.08;;;;;;;19.41;97.22;101310.63;5327550;28;20031;-68
2023/06/29 04:50:25;;;;;;;28.35;23.98;;;;;;;19.43;97.65;101314.94;5307779;28;20044;-68
2023/06/29 04:52:59;;;;;;;26.30;22.27;;;;;;;19.46;96.52;101311.28;5305487;28;20039;-68
2023/06/29 04:55:30;;;;;;;27.95;22.98;;;;;;;19.43;96.89;101308.78;5307724;28;20024;-68
2023/06/29 04:58:01;;;;;;;28.43;22.20;;;;;;;19.50;96.27;101319.03;5307695;28;20028;-67
2023/06/29 05:00:33;;;;;;;27.40;23.10;;;;;;;19.40;96.29;101312.41;5307680;28;20032;-68
2023/06/29 05:03:04;;;;;;;26.80;23.33;;;;;;;19.42;96.43;101313.22;5307538;28;20024;-68
2023/06/29 05:05:36;;;;;;;25.27;22.53;;;;;;;19.48;96.86;101314.72;5307462;28;20097;-67
2023/06/29 05:08:07;;;;;;;26.73;22.87;;;;;;;19.44;96.38;101308.72;5307935;28;20060;-68
2023/06/29 05:10:39;;;;;;;31.80;22.60;;;;;;;19.46;96.79;101309.53;5307729;28;20024;-68
2023/06/29 05:13:10;;;;;;;30.80;24.10;;;;;;;19.46;97.48;101321.88;5289257;28;20031;-67
2023/06/29 05:15:47;;;;;;;26.70;22.40;;;;;;;19.47;96.06;101302.44;5306452;28;20498;-68
2023/06/29 05:18:18;;;;;;;31.85;24.30;;;;;;;19.45;96.73;101315.72;5307335;28;20028;-67
2023/06/29 05:20:50;;;;;;;28.43;25.07;;;;;;;19.41;96.96;101316.75;5307477;28;20039;-68
2023/06/29 05:23:21;;;;;;;27.07;24.27;;;;;;;19.50;97.90;101304.97;5306680;28;20246;-66
2023/06/29 05:25:53;;;;;;;33.27;24.00;;;;;;;19.52;97.41;101313.69;5305384;28;20028;-67
2023/06/29 05:28:24;;;;;;;28.38;23.10;;;;;;;19.56;96.89;101304.72;5305756;28;20032;-66
2023/06/29 05:30:56;;;;;;;25.60;23.07;;;;;;;19.58;96.22;101307.28;5306927;28;20471;-67
2023/06/29 05:33:27;;;;;;;27.70;24.80;;;;;;;19.50;95.98;101307.59;5305689;28;20382;-67
2023/06/29 05:35:59;;;;;;;27.90;24.07;;;;;;;19.51;96.12;101311.94;5307059;28;20536;-66
2023/06/29 05:38:30;;;;;;;28.00;22.03;;;;;;;19.50;96.17;101297.03;5306955;28;20020;-66
2023/06/29 05:41:02;;;;;;;28.83;23.93;;;;;;;19.55;96.19;101305.63;5305400;28;20286;-67
2023/06/29 05:43:33;;;;;;;30.10;25.00;;;;;;;19.60;95.41;101302.78;5307189;28;20368;-67
2023/06/29 05:46:07;;;;;;;32.13;25.17;;;;;;;19.62;95.42;101299.13;5306578;28;20437;-67
2023/06/29 05:48:39;;;;;;;28.48;22.85;;;;;;;19.77;94.15;101305.59;5306739;28;20046;-67
2023/06/29 05:51:10;;;;;;;68.60;29.13;;;;;;;19.87;93.39;101303.41;5306683;28;20023;-68
2023/06/29 05:53:41;;;;;;;30.33;24.20;;;;;;;19.92;91.47;101300.56;5305961;28;20037;-68
2023/06/29 05:56:13;;;;;;;27.30;23.23;;;;;;;19.90;91.16;101302.41;5306466;28;20036;-66
2023/06/29 05:58:46;;;;;;;32.77;25.00;;;;;;;19.89;90.69;101306.84;5306541;28;20441;-67
2023/06/29 06:01:18;;;;;;;25.38;22.65;;;;;;;19.93;89.62;101299.63;5306194;28;20107;-66
2023/06/29 06:03:49;;;;;;;26.30;22.67;;;;;;;19.96;88.97;101300.34;5306200;28;20460;-66
2023/06/29 06:06:20;;;;;;;30.80;21.97;;;;;;;20.09;89.95;101299.81;5306132;28;20437;-67
2023/06/29 06:08:52;;;;;;;24.80;22.17;;;;;;;20.21;87.77;101299.28;5306252;28;20462;-66
2023/06/29 06:11:24;;;;;;;23.33;20.88;;;;;;;20.27;86.34;101304.31;5306195;28;20498;-66
2023/06/29 06:13:56;;;;;;;25.65;21.73;;;;;;;20.47;85.09;101303.38;5306226;28;20021;-66
2023/06/29 06:16:27;;;;;;;28.03;22.13;;;;;;;20.49;85.45;101300.66;5304821;28;20031;-66
2023/06/29 06:18:59;;;;;;;24.67;20.43;;;;;;;20.49;85.27;101290.91;5306206;28;20036;-66
2023/06/29 06:21:31;;;;;;;28.90;19.87;;;;;;;20.69;85.13;101289.19;5304908;28;20035;-68
2023/06/29 06:24:02;;;;;;;20.15;17.98;;;;;;;20.89;81.77;101297.03;5305431;28;20070;-66
2023/06/29 06:26:33;;;;;;;33.47;21.60;;;;;;;20.91;81.02;101308.44;5305936;28;20040;-67
2023/06/29 06:29:05;;;;;;;24.43;21.47;;;;;;;21.05;80.38;101298.94;5304521;28;20024;-67
2023/06/29 06:31:36;;;;;;;21.00;18.73;;;;;;;20.97;79.78;101307.25;5304861;28;20123;-68
2023/06/29 06:34:08;;;;;;;25.43;20.20;;;;;;;21.00;79.58;101300.97;5305775;28;20411;-67
2023/06/29 06:36:39;;;;;;;24.97;19.57;;;;;;;21.05;79.91;101305.09;5304812;28;20120;-66
2023/06/29 06:39:10;;;;;;;21.60;18.77;;;;;;;21.05;78.67;101297.13;5305565;28;20032;-67
2023/06/29 06:41:42;;;;;;;20.70;18.50;;;;;;;21.05;78.10;101302.44;5305595;28;20463;-67
2023/06/29 06:44:13;;;;;;;19.83;17.47;;;;;;;21.04;78.76;101294.56;5305609;28;20028;-67
2023/06/29 06:46:44;;;;;;;21.73;19.03;;;;;;;21.13;76.64;101302.06;5305826;28;20044;-67
2023/06/29 06:49:16;;;;;;;20.17;17.97;;;;;;;20.99;78.86;101301.88;5304206;28;20056;-66
2023/06/29 06:51:47;;;;;;;22.53;19.93;;;;;;;20.97;77.54;101295.81;5304035;28;20035;-67
2023/06/29 06:54:19;;;;;;;22.23;19.83;;;;;;;21.02;77.90;101299.94;5303919;28;20036;-66
2023/06/29 06:56:51;;;;;;;26.53;18.00;;;;;;;21.17;78.19;101290.41;5305510;28;20475;-67
2023/06/29 06:59:22;;;;;;;20.85;18.23;;;;;;;21.48;76.46;101295.06;5305173;28;20058;-67
2023/06/29 07:01:54;;;;;;;22.60;19.47;;;;;;;21.70;73.86;101298.41;5305271;28;20421;-67
2023/06/29 07:04:25;;;;;;;21.90;19.70;;;;;;;21.81;73.79;101304.00;5304962;28;20043;-67
2023/06/29 07:06:56;;;;;;;21.47;19.17;;;;;;;21.78;72.14;101297.09;5303758;28;20123;-67
2023/06/29 07:09:28;;;;;;;22.03;17.57;;;;;;;21.92;72.38;101295.50;5305267;28;20036;-68
2023/06/29 07:11:59;;;;;;;21.60;19.33;;;;;;;22.02;71.32;101308.22;5304937;28;20525;-68
2023/06/29 07:14:31;;;;;;;21.53;19.23;;;;;;;22.15;71.74;101297.81;5305087;28;20392;-68
2023/06/29 07:17:03;;;;;;;20.08;18.02;;;;;;;22.31;71.08;101304.97;5305009;28;20274;-66
2023/06/29 07:19:35;;;;;;;22.67;20.15;;;;;;;22.30;66.22;101306.78;5304951;28;20043;-66
2023/06/29 07:22:06;;;;;;;23.20;19.08;;;;;;;22.35;67.37;101306.53;5304715;28;20062;-68
2023/06/29 07:24:38;;;;;;;21.77;19.47;;;;;;;22.40;66.75;101310.63;5304487;28;20052;-67
2023/06/29 07:27:10;;;;;;;21.90;17.88;;;;;;;22.56;66.36;101297.38;5304720;28;20521;-67
2023/06/29 07:29:42;;;;;;;19.77;17.67;;;;;;;22.78;66.92;101298.81;5304807;28;20052;-67
2023/06/29 07:32:14;;;;;;;23.25;20.23;;;;;;;22.83;63.99;101306.53;5304681;28;20046;-68
2023/06/29 07:34:45;;;;;;;24.03;20.43;;;;;;;22.81;61.97;101303.13;5304488;28;20111;-66
2023/06/29 07:37:16;;;;;;;23.43;19.47;;;;;;;22.70;63.36;101301.06;5304563;28;20111;-67
2023/06/29 07:39:48;;;;;;;21.63;18.50;;;;;;;22.76;62.53;101298.06;5304409;28;20028;-67
2023/06/29 07:42:19;;;;;;;21.77;19.40;;;;;;;22.55;62.08;101300.97;5304421;28;20032;-67
2023/06/29 07:44:50;;;;;;;22.83;20.33;;;;;;;22.54;63.29;101295.72;5304430;28;20032;-67
2023/06/29 07:47:22;;;;;;;21.80;19.50;;;;;;;22.56;62.26;101299.19;5304261;28;20395;-68
2023/06/29 07:49:54;;;;;;;21.98;19.77;;;;;;;22.65;61.61;101292.50;5304444;28;20471;-67
2023/06/29 07:52:26;;;;;;;24.07;20.50;;;;;;;22.97;59.60;101287.16;5303840;28;20115;-67
2023/06/29 07:54:58;;;;;;;21.50;19.23;;;;;;;23.08;62.34;101287.44;5304443;28;20043;-67
2023/06/29 07:57:29;;;;;;;21.87;18.63;;;;;;;23.04;59.54;101281.41;5304626;28;20028;-67
2023/06/29 08:00:00;;;;;;;25.53;21.37;;;;;;;22.98;59.48;101288.91;5304198;28;20119;-67
2023/06/29 08:02:32;;;;;;;23.80;21.17;;;;;;;22.91;61.60;101291.91;5304328;28;20039;-67
2023/06/29 08:05:03;;;;;;;22.70;20.30;;;;;;;23.05;60.79;101277.78;5304103;28;20448;-68
2023/06/29 08:07:35;;;;;;;24.10;20.20;;;;;;;23.02;60.28;101279.78;5304598;28;20386;-68
2023/06/29 08:10:07;;;;;;;23.75;20.58;;;;;;;22.78;61.58;101280.22;5304294;28;20036;-68
2023/06/29 08:12:38;;;;;;;21.58;19.27;;;;;;;22.89;62.26;101277.84;5304288;28;20024;-66
2023/06/29 08:15:10;;;;;;;21.83;19.00;;;;;;;22.73;61.21;101283.16;5303977;28;20067;-66
2023/06/29 08:17:41;;;;;;;23.52;21.02;;;;;;;22.81;60.61;101282.72;5304055;28;20028;-67
2023/06/29 08:20:13;;;;;;;23.58;20.58;;;;;;;22.84;60.42;101281.69;5304140;28;20051;-66
2023/06/29 08:22:45;;;;;;;28.77;22.80;;;;;;;22.85;60.66;101273.63;5303870;28;20044;-66
2023/06/29 08:25:16;;;;;;;22.77;20.20;;;;;;;23.08;62.77;101276.81;5303643;28;20105;-67
2023/06/29 08:27:49;;;;;;;26.23;21.77;;;;;;;23.17;60.78;101270.97;5304117;28;20131;-68
2023/06/29 08:30:21;;;;;;;26.80;22.20;;;;;;;23.05;60.54;101283.13;5303903;28;20024;-68
2023/06/29 08:32:53;;;;;;;26.17;21.80;;;;;;;23.21;59.20;101285.78;5304055;28;20038;-66
2023/06/29 08:35:24;;;;;;;23.60;21.13;;;;;;;23.07;60.13;101283.03;5303861;28;20036;-68
2023/06/29 08:37:56;;;;;;;25.33;22.60;;;;;;;23.05;59.55;101280.44;5303949;28;20115;-68
2023/06/29 08:40:31;;;;;;;22.50;20.10;;;;;;;23.30;59.70;101287.06;5303758;28;20028;-68
2023/06/29 08:43:03;;;;;;;24.85;22.25;;;;;;;23.34;58.37;101280.59;5303968;28;20310;-68
2023/06/29 08:45:34;;;;;;;23.37;20.87;;;;;;;23.62;57.59;101277.16;5304066;28;20087;-67
2023/06/29 08:48:07;;;;;;;23.97;21.47;;;;;;;23.85;57.02;101277.63;5302389;28;20040;-67
2023/06/29 08:50:44;;;;;;;25.20;22.17;;;;;;;24.21;56.35;101279.81;5303635;28;20361;-67
2023/06/29 08:53:15;;;;;;;25.17;22.55;;;;;;;23.96;55.92;101271.66;5303404;28;20427;-67
2023/06/29 08:55:48;;;;;;;25.92;21.05;;;;;;;24.36;55.85;101269.16;5303720;28;20111;-67
2023/06/29 08:58:23;;;;;;;28.08;23.88;;;;;;;24.13;57.83;101262.59;5303657;28;20111;-68
2023/06/29 09:00:55;;;;;;;25.30;22.50;;;;;;;24.40;55.86;101265.31;5305399;28;20032;-69
2023/06/29 09:03:28;;;;;;;24.92;22.38;;;;;;;24.73;57.29;101266.84;5307395;28;20039;-68
2023/06/29 09:06:00;;;;;;;25.77;21.98;;;;;;;25.14;54.54;101265.06;5307477;28;20563;-68
2023/06/29 09:08:34;;;;;;;26.27;23.60;;;;;;;24.81;53.56;101267.19;5289600;28;20107;-68
2023/06/29 09:11:05;;;;;;;24.85;22.08;;;;;;;24.81;54.00;101267.19;5307489;28;20366;-67
2023/06/29 09:13:37;;;;;;;23.73;21.30;;;;;;;25.15;53.81;101267.63;5307304;28;20107;-69
2023/06/29 09:16:09;;;;;;;24.45;21.88;;;;;;;24.80;52.57;101265.47;5306532;28;20114;-67
2023/06/29 09:18:41;;;;;;;;;;;;;;;25.20;52.92;101270.84;5307871;28;20028;-67
2023/06/29 09:21:12;;;;;;;23.20;20.53;;;;;;;24.82;51.53;101263.53;5307229;28;19923;-68
2023/06/29 09:23:44;;;;;;;23.23;20.00;;;;;;;24.68;54.29;101266.25;5306910;28;20339;-68
2023/06/29 09:26:17;;;;;;;25.25;19.23;;;;;;;24.54;53.28;101262.63;5307266;28;20028;-67
2023/06/29 09:28:48;;;;;;;23.60;20.80;;;;;;;24.43;53.92;101258.97;5307444;28;20079;-69
2023/06/29 09:31:19;;;;;;;23.33;20.30;;;;;;;24.78;55.79;101263.84;5307165;28;20063;-68
2023/06/29 09:33:51;;;;;;;23.10;20.60;;;;;;;24.54;54.51;101253.78;5307169;28;20294;-68
2023/06/29 09:36:25;;;;;;;24.67;20.55;;;;;;;24.35;54.30;101259.44;5306067;28;20043;-68
2023/06/29 09:38:58;;;;;;;25.70;21.08;;;;;;;24.37;54.26;101261.03;5306728;28;20028;-68
2023/06/29 09:41:29;;;;;;;22.67;20.30;;;;;;;24.34;53.89;101258.59;5307272;28;20032;-67
2023/06/29 09:44:00;;;;;;;23.43;21.03;;;;;;;24.40;53.05;101263.50;5306894;28;20039;-68
2023/06/29 09:46:35;;;;;;;23.38;20.88;;;;;;;24.42;53.63;101267.91;5306861;28;20063;-68
2023/06/29 09:49:08;;;;;;;23.98;21.52;;;;;;;24.17;54.34;101277.44;5306625;28;20116;-67
2023/06/29 09:51:40;;;;;;;26.40;22.77;;;;;;;24.33;54.54;101267.53;5306975;28;20035;-67
2023/06/29 09:54:13;;;;;;;27.63;23.35;;;;;;;24.56;54.04;101270.56;5306307;28;20031;-66
2023/06/29 09:56:46;;;;;;;25.27;22.67;;;;;;;24.17;53.25;101264.97;5306499;28;20020;-67
2023/06/29 09:59:18;;;;;;;24.35;21.85;;;;;;;24.42;58.07;101263.41;5305272;28;20050;-67
2023/06/29 10:01:49;;;;;;;25.13;22.27;;;;;;;24.57;52.90;101261.63;5305259;28;20032;-66
2023/06/29 10:04:20;;;;;;;23.13;20.73;;;;;;;24.48;53.38;101265.69;5306589;28;20448;-68
2023/06/29 10:07:08;;;;;;;23.27;20.87;;;;;;;24.42;53.69;101273.22;5306251;28;20044;-66
2023/06/29 10:09:42;;;;;;;24.85;22.23;;;;;;;24.70;54.27;101265.22;5306290;28;20028;-67
2023/06/29 10:12:15;;;;;;;26.13;22.67;;;;;;;24.86;53.90;101258.84;5304631;28;20042;-67
2023/06/29 10:14:49;;;;;;;25.63;22.95;;;;;;;24.62;52.95;101271.97;5306262;28;20032;-66
2023/06/29 10:17:37;;;;;;;27.13;23.08;;;;;;;24.54;53.85;101261.78;5306313;28;20441;-67
2023/06/29 10:20:11;;;;;;;26.02;23.13;;;;;;;24.67;53.75;101260.06;5304885;28;20027;-67
2023/06/29 10:22:44;;;;;;;26.63;23.58;;;;;;;24.94;57.78;101261.91;5304148;28;20066;-67
2023/06/29 10:25:20;;;;;;;25.77;23.27;;;;;;;24.56;52.08;101267.91;5306207;28;20509;-67
2023/06/29 10:27:54;;;;;;;25.42;22.80;;;;;;;24.48;51.73;101270.19;5305972;28;20024;-68
2023/06/29 10:30:26;;;;;;;27.42;23.85;;;;;;;24.82;51.96;101270.69;5306053;28;20024;-68
2023/06/29 10:32:57;;;;;;;30.13;24.35;;;;;;;24.80;53.50;101269.94;5305567;28;20105;-68
2023/06/29 10:35:32;;;;;;;24.47;21.93;;;;;;;24.61;58.90;101260.47;5306041;28;20039;-67
2023/06/29 10:38:12;;;;;;;25.63;22.67;;;;;;;24.53;55.43;101254.75;5305750;28;20270;-68
2023/06/29 10:40:48;;;;;;;27.55;24.00;;;;;;;24.42;55.97;101262.56;5305773;28;20588;-68
2023/06/29 10:43:19;;;;;;;27.90;23.10;;;;;;;24.51;54.87;101262.84;5304211;28;20471;-68
2023/06/29 10:45:51;;;;;;;26.13;23.33;;;;;;;24.43;56.37;101262.47;5305559;28;20031;-67
2023/06/29 10:48:24;;;;;;;27.67;24.87;;;;;;;24.26;55.70;101263.53;5305638;28;20032;-67
2023/06/29 10:50:57;;;;;;;33.90;25.80;;;;;;;24.08;57.01;101262.88;5305517;28;20073;-68
2023/06/29 10:53:29;;;;;;;27.80;25.00;;;;;;;24.30;56.78;101254.41;5304933;28;20119;-67
2023/06/29 10:56:00;;;;;;;28.00;24.65;;;;;;;24.26;56.15;101255.53;5305187;28;20543;-67
2023/06/29 10:58:36;;;;;;;27.50;24.65;;;;;;;24.15;57.99;101250.91;5305482;28;20383;-68
2023/06/29 11:01:08;;;;;;;29.42;24.20;;;;;;;24.56;56.33;101252.75;5305255;28;20437;-68
2023/06/29 11:03:39;;;;;;;26.17;23.47;;;;;;;24.45;58.16;101257.88;5305320;28;20115;-69
2023/06/29 11:06:11;;;;;;;25.92;23.10;;;;;;;24.81;56.85;101256.53;5305105;28;20039;-68
2023/06/29 11:08:42;;;;;;;30.17;24.97;;;;;;;24.77;56.24;101262.16;5305400;28;20031;-68
2023/06/29 11:11:14;;;;;;;25.20;22.50;;;;;;;24.83;54.58;101254.59;5305166;28;20036;-68
2023/06/29 11:13:46;;;;;;;26.65;23.92;;;;;;;24.47;54.90;101256.00;5305141;28;20031;-67
2023/06/29 11:16:17;;;;;;;27.95;24.25;;;;;;;24.47;54.39;101253.34;5304873;28;20032;-68
2023/06/29 11:18:50;;;;;;;27.10;22.60;;;;;;;24.57;54.02;101254.47;5304884;28;20036;-68
2023/06/29 11:21:24;;;;;;;27.65;24.50;;;;;;;24.56;53.28;101262.56;5305042;28;20111;-68
2023/06/29 11:23:56;;;;;;;29.60;23.30;;;;;;;24.84;51.93;101251.00;5303836;28;20131;-68
2023/06/29 11:26:28;;;;;;;27.13;24.23;;;;;;;24.36;52.34;101246.03;5303446;28;20169;-67
2023/06/29 11:29:00;;;;;;;27.17;23.33;;;;;;;24.31;52.08;101249.91;5304792;28;20262;-68
2023/06/29 11:31:31;;;;;;;27.00;24.17;;;;;;;24.35;51.60;101246.97;5304678;28;20055;-67